createdAt,value
2023-04-25T00:03:41.286Z,13.95
2023-04-25T00:08:44.987Z,15.55
2023-04-25T00:13:51.026Z,11.57
2023-04-25T00:18:54.842Z,12.45
2023-04-25T00:23:58.510Z,13.00
2023-04-25T00:29:03.446Z,28.02
2023-04-25T00:34:07.041Z,15.50
2023-04-25T00:39:10.638Z,10.95
2023-04-25T00:44:18.150Z,19.33
2023-04-25T00:49:21.631Z,14.27
2023-04-25T00:54:25.450Z,14.55
2023-04-25T00:59:31.067Z,14.10
2023-04-25T01:04:34.779Z,15.23
2023-04-25T01:09:38.306Z,15.95
2023-04-25T01:14:43.268Z,20.45
2023-04-25T01:19:47.425Z,20.85
2023-04-25T01:24:52.552Z,15.52
2023-04-25T01:29:56.799Z,15.30
2023-04-25T01:35:00.274Z,15.13
2023-04-25T01:40:06.577Z,19.20
2023-04-25T01:45:11.892Z,13.52
2023-04-25T01:50:15.503Z,17.88
2023-04-25T01:55:20.450Z,13.68
2023-04-25T02:05:27.480Z,15.10
2023-04-25T02:10:32.546Z,13.35
2023-04-25T02:15:36.103Z,12.95
2023-04-25T02:21:02.227Z,14.95
2023-04-25T02:26:07.478Z,14.73
2023-04-25T02:31:11.212Z,12.18
2023-04-25T02:36:14.813Z,9.63
2023-04-25T02:41:19.807Z,14.60
2023-04-25T02:46:32.523Z,12.40
2023-04-25T02:51:41.686Z,11.27
2023-04-25T02:56:46.660Z,13.18
2023-04-25T03:01:50.105Z,10.73
2023-04-25T03:06:54.261Z,17.73
2023-04-25T03:11:59.269Z,15.98
2023-04-25T03:17:02.952Z,15.57
2023-04-25T03:22:06.472Z,15.65
2023-04-25T03:27:11.475Z,18.10
2023-04-25T03:32:15.092Z,16.85
2023-04-25T03:37:18.768Z,17.48
2023-04-25T03:42:24.684Z,14.40
2023-04-25T03:47:28.190Z,18.13
2023-04-25T03:52:31.806Z,15.85
2023-04-25T03:57:36.735Z,12.70
2023-04-25T04:02:41.857Z,11.98
2023-04-25T04:07:46.748Z,15.25
2023-04-25T04:12:51.664Z,24.15
2023-04-25T04:17:55.352Z,20.02
2023-04-25T04:22:58.931Z,15.70
2023-04-25T04:28:03.962Z,13.53
2023-04-25T04:33:08.649Z,16.45
2023-04-25T04:38:13.518Z,13.50
2023-04-25T04:43:20.033Z,16.60
2023-04-25T04:48:24.850Z,11.90
2023-04-25T04:53:28.301Z,17.55
2023-04-25T05:03:36.534Z,10.02
2023-04-25T05:08:40.195Z,12.02
2023-04-25T05:13:45.286Z,9.23
2023-04-25T05:18:49.253Z,12.27
2023-04-25T05:23:53.092Z,8.63
2023-04-25T05:28:58.200Z,11.15
2023-04-25T05:34:01.726Z,11.35
2023-04-25T05:39:05.872Z,11.00
2023-04-25T05:44:10.967Z,10.82
2023-04-25T05:49:14.525Z,13.43
2023-04-25T05:54:17.970Z,13.52
2023-04-25T05:59:22.895Z,14.07
2023-04-25T06:04:27.583Z,12.52
2023-04-25T06:09:31.356Z,8.93
2023-04-25T06:14:36.545Z,9.55
2023-04-25T06:19:40.312Z,20.15
2023-04-25T06:24:43.883Z,17.27
2023-04-25T06:29:48.749Z,20.80
2023-04-25T06:34:52.238Z,17.05
2023-04-25T06:39:55.722Z,17.98
2023-04-25T06:45:00.828Z,17.77
2023-04-25T06:50:04.563Z,20.45
2023-04-25T06:55:09.035Z,14.77
2023-04-25T07:00:15.499Z,19.90
2023-04-25T07:05:19.411Z,13.18
2023-04-25T07:10:23.141Z,17.27
2023-04-25T07:15:28.036Z,12.18
2023-04-25T07:20:32.180Z,11.63
2023-04-25T07:25:36.252Z,10.75
2023-04-25T07:30:41.257Z,11.25
2023-04-25T07:35:44.710Z,9.43
2023-04-25T07:40:48.201Z,9.07
2023-04-25T07:45:53.146Z,11.20
2023-04-25T07:50:56.658Z,13.57
2023-04-25T07:56:00.148Z,10.88
2023-04-25T08:01:05.379Z,17.23
2023-04-25T08:06:09.153Z,8.35
2023-04-25T08:11:13.015Z,8.38
2023-04-25T08:16:17.987Z,10.95
2023-04-25T08:21:21.613Z,7.90
2023-04-25T08:26:25.082Z,9.07
2023-04-25T08:31:30.272Z,8.02
2023-04-25T08:36:39.441Z,6.78
2023-04-25T08:41:45.660Z,12.88
2023-04-25T08:46:51.829Z,10.85
2023-04-25T08:51:59.408Z,12.85
2023-04-25T08:57:05.522Z,10.02
2023-04-25T09:02:12.751Z,14.57
2023-04-25T09:07:19.724Z,10.43
2023-04-25T09:12:23.765Z,11.45
2023-04-25T09:22:33.292Z,15.30
2023-04-25T09:27:36.963Z,13.70
2023-04-25T09:32:42.339Z,10.40
2023-04-25T09:37:45.849Z,12.50
2023-04-25T09:42:49.422Z,15.75
2023-04-25T09:47:59.014Z,13.73
2023-04-25T09:53:06.657Z,9.27
2023-04-25T09:58:12.912Z,15.45
2023-04-25T10:03:19.722Z,11.05
2023-04-25T10:08:24.999Z,13.30
2023-04-25T10:13:29.703Z,13.55
2023-04-25T10:18:35.376Z,7.40
2023-04-25T10:23:39.685Z,10.38
2023-04-25T10:28:58.020Z,13.07
2023-04-25T10:34:03.482Z,10.00
2023-04-25T10:39:10.013Z,7.72
2023-04-25T10:44:13.651Z,9.85
2023-04-25T10:49:35.019Z,10.77
2023-04-25T10:54:43.272Z,7.03
2023-04-25T10:59:47.401Z,6.85
2023-04-25T11:09:57.192Z,8.82
2023-04-25T11:15:05.836Z,8.68
2023-04-25T11:20:12.568Z,7.40
2023-04-25T11:25:17.826Z,8.63
2023-04-25T11:30:22.630Z,14.20
2023-04-25T11:35:27.861Z,8.70
2023-04-25T11:40:33.256Z,11.02
2023-04-25T11:45:39.165Z,8.73
2023-04-25T11:50:44.258Z,11.32
2023-04-25T11:55:47.866Z,7.00
2023-04-25T12:00:51.800Z,5.43
2023-04-25T12:06:05.811Z,9.73
2023-04-25T12:11:23.911Z,10.05
2023-04-25T12:16:27.522Z,9.35
2023-04-25T12:21:35.385Z,4.80
2023-04-25T12:26:49.793Z,17.08
2023-04-25T12:31:55.037Z,8.40
2023-04-25T12:37:00.187Z,5.75
2023-04-25T12:42:06.104Z,10.25
2023-04-25T12:47:11.636Z,12.27
2023-04-25T12:52:16.701Z,6.93
2023-04-25T12:57:20.195Z,5.60
2023-04-25T13:02:23.884Z,4.53
2023-04-25T13:07:28.868Z,6.10
2023-04-25T13:12:32.701Z,8.13
2023-04-25T13:17:36.291Z,6.90
2023-04-25T13:22:42.107Z,6.15
2023-04-25T13:27:46.064Z,7.05
2023-04-25T13:32:49.641Z,9.32
2023-04-25T13:37:54.599Z,8.18
2023-04-25T13:42:58.541Z,5.13
2023-04-25T13:48:02.081Z,5.75
2023-04-25T13:53:07.119Z,8.75
2023-04-25T13:58:11.193Z,8.45
2023-04-25T14:08:19.709Z,6.82
2023-04-25T14:13:24.529Z,6.47
2023-04-25T14:18:28.034Z,7.88
2023-04-25T14:23:32.971Z,9.77
2023-04-25T14:28:36.514Z,8.02
2023-04-25T14:33:42.986Z,7.38
2023-04-25T14:38:47.994Z,6.60
2023-04-25T14:43:51.887Z,7.15
2023-04-25T14:48:57.089Z,6.95
2023-04-25T14:54:02.244Z,8.45
2023-04-25T14:59:05.712Z,10.75
2023-04-25T15:04:09.331Z,10.00
2023-04-25T15:09:14.459Z,6.45
2023-04-25T15:14:18.875Z,8.65
2023-04-25T15:19:23.271Z,8.40
2023-04-25T15:24:28.200Z,5.07
2023-04-25T15:29:32.155Z,4.78
2023-04-25T15:34:36.469Z,4.90
2023-04-25T15:39:41.572Z,7.65
2023-04-25T15:44:45.123Z,6.70
2023-04-25T15:49:48.620Z,7.00
2023-04-25T15:54:53.584Z,6.00
2023-04-25T15:59:57.249Z,7.53
2023-04-25T16:05:00.907Z,9.48
2023-04-25T16:15:13.452Z,7.43
2023-04-25T16:20:17.123Z,8.82
2023-04-25T16:25:23.032Z,8.93
2023-04-25T16:30:26.925Z,7.57
2023-04-25T16:35:32.567Z,8.88
2023-04-25T16:40:37.762Z,7.63
2023-04-25T16:45:41.343Z,11.13
2023-04-25T16:50:44.957Z,10.00
2023-04-25T16:55:49.919Z,8.77
2023-04-25T17:00:53.956Z,11.65
2023-04-25T17:05:57.988Z,5.80
2023-04-25T17:11:03.054Z,10.60
2023-04-25T17:16:07.576Z,15.73
2023-04-25T17:26:16.599Z,16.27
2023-04-25T17:31:20.667Z,15.00
2023-04-25T17:36:24.795Z,22.63
2023-04-25T17:41:29.780Z,34.50
2023-04-25T17:46:33.487Z,31.00
2023-04-25T17:51:37.087Z,23.23
2023-04-25T17:56:42.182Z,21.53
2023-04-25T18:01:47.786Z,18.77
2023-04-25T18:06:51.817Z,29.60
2023-04-25T18:11:56.868Z,17.13
2023-04-25T18:17:00.404Z,20.88
2023-04-25T18:22:04.213Z,16.52
2023-04-25T18:27:09.138Z,14.17
2023-04-25T18:32:12.854Z,12.13
2023-04-25T18:37:16.385Z,13.20
2023-04-25T18:42:22.613Z,15.50
2023-04-25T18:47:26.109Z,15.48
2023-04-25T18:52:29.757Z,9.52
2023-04-25T18:57:34.829Z,5.63
2023-04-25T19:02:38.822Z,9.23
2023-04-25T19:07:42.451Z,7.45
2023-04-25T19:12:49.397Z,10.60
2023-04-25T19:17:53.600Z,6.68
2023-04-25T19:22:57.272Z,12.27
2023-04-25T19:28:02.484Z,9.50
2023-04-25T19:33:06.353Z,13.02
2023-04-25T19:38:09.915Z,13.30
2023-04-25T19:43:14.843Z,12.48
2023-04-25T19:48:18.441Z,11.35
2023-04-25T19:53:21.959Z,11.82
2023-04-25T19:58:27.316Z,8.45
2023-04-25T20:03:30.901Z,9.38
2023-04-25T20:08:36.435Z,17.93
2023-04-25T20:13:41.401Z,12.80
2023-04-25T20:18:44.933Z,8.05
2023-04-25T20:23:48.485Z,9.05
2023-04-25T20:28:53.566Z,11.27
2023-04-25T20:33:57.419Z,12.07
2023-04-25T20:39:01.053Z,10.35
2023-04-25T20:44:07.650Z,13.30
2023-04-25T20:49:11.098Z,13.80
2023-04-25T20:54:14.599Z,8.52
2023-04-25T20:59:19.524Z,9.30
2023-04-25T21:04:23.212Z,14.45
2023-04-25T21:09:27.006Z,9.80
2023-04-25T21:14:31.922Z,8.50
2023-04-25T21:19:35.410Z,10.95
2023-04-25T21:24:38.878Z,12.32
2023-04-25T21:29:43.748Z,9.40
2023-04-25T21:34:47.202Z,9.63
2023-04-25T21:39:50.756Z,11.15
2023-04-25T21:44:56.187Z,8.73
2023-04-25T21:49:59.887Z,8.63
2023-04-25T21:55:03.599Z,10.37
2023-04-25T22:00:24.796Z,8.53
2023-04-25T22:05:29.588Z,10.32
2023-04-25T22:10:33.700Z,6.63
2023-04-25T22:15:38.622Z,7.68
2023-04-25T22:20:42.120Z,8.35
2023-04-25T22:25:46.372Z,8.88
2023-04-25T22:30:51.275Z,6.03
2023-04-25T22:35:54.763Z,6.93
2023-04-25T22:40:58.275Z,5.78
2023-04-25T22:46:03.684Z,9.30
2023-04-25T22:51:07.832Z,7.07
2023-04-25T22:56:11.443Z,10.27
2023-04-25T23:01:19.344Z,9.33
2023-04-25T23:06:23.008Z,7.10
2023-04-25T23:11:26.570Z,9.35
2023-04-25T23:16:31.504Z,9.02
2023-04-25T23:21:35.018Z,11.63
2023-04-25T23:26:38.563Z,6.07
2023-04-25T23:31:43.459Z,8.75
2023-04-25T23:36:48.244Z,7.50
2023-04-25T23:41:51.701Z,7.68
2023-04-25T23:46:56.702Z,9.45
2023-04-25T23:52:00.149Z,11.27
2023-04-25T23:57:04.913Z,7.80
